TimeCDT,TemperatureF,Dew PointF,Humidity,Sea Level PressureIn,VisibilityMPH,Wind Direction,Wind SpeedMPH,Gust SpeedMPH,PrecipitationIn,Events,Conditions,WindDirDegrees,DateUTC
12:53 AM,61.0,57.9,90,30.07,8.0,Calm,Calm,-,N/A,,Clear,0,2012-10-10 05:53:00
1:53 AM,59.0,55.9,90,30.08,8.0,Calm,Calm,-,N/A,,Clear,0,2012-10-10 06:53:00
2:53 AM,59.0,55.9,90,30.09,9.0,NNW,3.5,-,N/A,,Clear,330,2012-10-10 07:53:00
3:53 AM,59.0,55.9,90,30.10,10.0,Calm,Calm,-,N/A,,Clear,0,2012-10-10 08:53:00
4:53 AM,60.1,55.9,86,30.10,10.0,Calm,Calm,-,N/A,,Clear,0,2012-10-10 09:53:00
5:53 AM,57.9,55.9,93,30.12,7.0,Calm,Calm,-,N/A,,Clear,0,2012-10-10 10:53:00
6:53 AM,57.9,55.9,93,30.13,6.0,Calm,Calm,-,N/A,,Clear,0,2012-10-10 11:53:00
7:53 AM,61.0,57.9,90,30.13,6.0,Calm,Calm,-,N/A,,Clear,0,2012-10-10 12:53:00
8:53 AM,68.0,62.1,81,30.15,8.0,Calm,Calm,-,N/A,,Clear,0,2012-10-10 13:53:00
9:53 AM,75.0,63.0,66,30.17,10.0,North,3.5,-,N/A,,Clear,350,2012-10-10 14:53:00
10:53 AM,78.1,61.0,56,30.17,10.0,North,3.5,-,N/A,,Clear,350,2012-10-10 15:53:00
11:53 AM,81.0,61.0,50,30.15,10.0,Calm,Calm,-,N/A,,Clear,0,2012-10-10 16:53:00
12:53 PM,82.9,61.0,47,30.13,10.0,Variable,3.5,-,N/A,,Clear,0,2012-10-10 17:53:00
1:53 PM,84.9,63.0,48,30.09,10.0,Variable,4.6,-,N/A,,Scattered Clouds,0,2012-10-10 18:53:00
2:53 PM,82.9,64.9,54,30.08,10.0,South,5.8,-,N/A,,Mostly Cloudy,180,2012-10-10 19:53:00
2:55 PM,82.4,64.4,54,30.08,10.0,SSE,6.9,-,N/A,,Scattered Clouds,160,2012-10-10 19:55:00
3:53 PM,80.1,64.9,60,30.08,10.0,SSW,5.8,-,N/A,,Scattered Clouds,200,2012-10-10 20:53:00
4:53 PM,81.0,64.0,56,30.08,10.0,Calm,Calm,-,N/A,,Scattered Clouds,0,2012-10-10 21:53:00
5:53 PM,78.1,64.9,64,30.09,10.0,South,4.6,-,N/A,,Scattered Clouds,180,2012-10-10 22:53:00
6:53 PM,75.9,66.9,74,30.10,10.0,Calm,Calm,-,N/A,,Scattered Clouds,0,2012-10-10 23:53:00
7:53 PM,72.0,66.9,84,30.13,10.0,Calm,Calm,-,N/A,,Clear,0,2012-10-11 00:53:00
8:53 PM,71.1,66.0,84,30.14,10.0,Calm,Calm,-,N/A,,Clear,0,2012-10-11 01:53:00
9:53 PM,69.1,64.9,87,30.15,10.0,Calm,Calm,-,N/A,,Clear,0,2012-10-11 02:53:00
10:53 PM,68.0,64.0,87,30.16,9.0,Calm,Calm,-,N/A,,Clear,0,2012-10-11 03:53:00
11:53 PM,66.0,63.0,90,30.16,8.0,Calm,Calm,-,N/A,,Clear,0,2012-10-11 04:53:00